sensor_id;sensor_type;location;lat;lon;timestamp;P1;durP1;ratioP1;P2;durP2;ratioP2
30173;SDS011;16985;50.814;8.530;2023-01-28T00:01:06;8.85;;;5.95;;
30173;SDS011;16985;50.814;8.530;2023-01-28T00:03:41;10.40;;;5.55;;
30173;SDS011;16985;50.814;8.530;2023-01-28T00:06:09;9.60;;;5.38;;
30173;SDS011;16985;50.814;8.530;2023-01-28T00:08:39;7.38;;;4.82;;
30173;SDS011;16985;50.814;8.530;2023-01-28T00:11:07;11.00;;;5.82;;
30173;SDS011;16985;50.814;8.530;2023-01-28T00:13:36;8.00;;;5.38;;
30173;SDS011;16985;50.814;8.530;2023-01-28T00:16:08;8.60;;;5.53;;
30173;SDS011;16985;50.814;8.530;2023-01-28T00:18:36;8.23;;;4.85;;
30173;SDS011;16985;50.814;8.530;2023-01-28T00:21:09;9.98;;;5.95;;
30173;SDS011;16985;50.814;8.530;2023-01-28T00:23:38;11.52;;;6.35;;
30173;SDS011;16985;50.814;8.530;2023-01-28T00:26:10;6.93;;;5.25;;
30173;SDS011;16985;50.814;8.530;2023-01-28T00:28:41;11.05;;;6.10;;
30173;SDS011;16985;50.814;8.530;2023-01-28T00:31:08;8.45;;;5.38;;
30173;SDS011;16985;50.814;8.530;2023-01-28T00:33:37;10.00;;;6.65;;
30173;SDS011;16985;50.814;8.530;2023-01-28T00:36:03;10.93;;;6.10;;
30173;SDS011;16985;50.814;8.530;2023-01-28T00:38:30;9.60;;;5.68;;
30173;SDS011;16985;50.814;8.530;2023-01-28T00:41:10;9.23;;;6.25;;
30173;SDS011;16985;50.814;8.530;2023-01-28T00:43:39;9.43;;;6.25;;
30173;SDS011;16985;50.814;8.530;2023-01-28T00:46:08;9.00;;;6.00;;
30173;SDS011;16985;50.814;8.530;2023-01-28T00:48:35;9.55;;;6.55;;
30173;SDS011;16985;50.814;8.530;2023-01-28T00:51:04;9.88;;;6.22;;
30173;SDS011;16985;50.814;8.530;2023-01-28T00:53:31;10.20;;;6.13;;
30173;SDS011;16985;50.814;8.530;2023-01-28T00:56:00;7.75;;;5.68;;
30173;SDS011;16985;50.814;8.530;2023-01-28T00:58:27;12.27;;;6.88;;
30173;SDS011;16985;50.814;8.530;2023-01-28T01:00:53;11.35;;;7.20;;
30173;SDS011;16985;50.814;8.530;2023-01-28T01:03:19;7.10;;;5.95;;
30173;SDS011;16985;50.814;8.530;2023-01-28T01:05:45;12.15;;;7.30;;
30173;SDS011;16985;50.814;8.530;2023-01-28T01:08:11;10.10;;;6.00;;
30173;SDS011;16985;50.814;8.530;2023-01-28T01:10:37;9.50;;;6.20;;
30173;SDS011;16985;50.814;8.530;2023-01-28T01:13:05;10.30;;;6.25;;
30173;SDS011;16985;50.814;8.530;2023-01-28T01:15:31;11.18;;;7.20;;
30173;SDS011;16985;50.814;8.530;2023-01-28T01:17:57;10.57;;;7.55;;
30173;SDS011;16985;50.814;8.530;2023-01-28T01:20:28;12.25;;;6.80;;
30173;SDS011;16985;50.814;8.530;2023-01-28T01:22:57;11.00;;;7.30;;
30173;SDS011;16985;50.814;8.530;2023-01-28T01:25:25;14.93;;;8.90;;
30173;SDS011;16985;50.814;8.530;2023-01-28T01:27:51;11.10;;;6.82;;
30173;SDS011;16985;50.814;8.530;2023-01-28T01:30:17;10.30;;;7.45;;
30173;SDS011;16985;50.814;8.530;2023-01-28T01:32:43;12.23;;;7.57;;
30173;SDS011;16985;50.814;8.530;2023-01-28T01:35:09;13.18;;;7.43;;
30173;SDS011;16985;50.814;8.530;2023-01-28T01:37:37;10.10;;;7.05;;
30173;SDS011;16985;50.814;8.530;2023-01-28T01:40:04;11.38;;;7.07;;
30173;SDS011;16985;50.814;8.530;2023-01-28T01:42:31;15.23;;;7.75;;
30173;SDS011;16985;50.814;8.530;2023-01-28T01:45:02;9.07;;;6.80;;
30173;SDS011;16985;50.814;8.530;2023-01-28T01:50:34;12.02;;;6.43;;
30173;SDS011;16985;50.814;8.530;2023-01-28T01:53:06;11.27;;;7.45;;
30173;SDS011;16985;50.814;8.530;2023-01-28T01:55:37;11.95;;;6.72;;
30173;SDS011;16985;50.814;8.530;2023-01-28T01:58:06;12.95;;;7.40;;
30173;SDS011;16985;50.814;8.530;2023-01-28T02:00:37;11.82;;;6.78;;
30173;SDS011;16985;50.814;8.530;2023-01-28T02:03:04;12.00;;;7.25;;
30173;SDS011;16985;50.814;8.530;2023-01-28T02:05:30;10.05;;;6.68;;
30173;SDS011;16985;50.814;8.530;2023-01-28T02:07:57;8.68;;;6.18;;
30173;SDS011;16985;50.814;8.530;2023-01-28T02:10:43;9.80;;;6.65;;
30173;SDS011;16985;50.814;8.530;2023-01-28T02:13:21;14.20;;;6.88;;
30173;SDS011;16985;50.814;8.530;2023-01-28T02:15:52;10.18;;;6.43;;
30173;SDS011;16985;50.814;8.530;2023-01-28T02:18:19;12.10;;;6.20;;
30173;SDS011;16985;50.814;8.530;2023-01-28T02:29:04;11.55;;;7.68;;
30173;SDS011;16985;50.814;8.530;2023-01-28T02:34:35;7.65;;;5.50;;
30173;SDS011;16985;50.814;8.530;2023-01-28T02:39:53;8.48;;;5.65;;
30173;SDS011;16985;50.814;8.530;2023-01-28T02:42:28;6.05;;;5.35;;
30173;SDS011;16985;50.814;8.530;2023-01-28T02:44:58;8.52;;;6.00;;
30173;SDS011;16985;50.814;8.530;2023-01-28T02:47:25;7.57;;;5.55;;
30173;SDS011;16985;50.814;8.530;2023-01-28T02:50:10;9.07;;;5.03;;
30173;SDS011;16985;50.814;8.530;2023-01-28T02:55:45;11.30;;;6.32;;
30173;SDS011;16985;50.814;8.530;2023-01-28T02:58:31;11.70;;;6.13;;
30173;SDS011;16985;50.814;8.530;2023-01-28T03:04:13;6.88;;;5.45;;
30173;SDS011;16985;50.814;8.530;2023-01-28T03:07:09;10.13;;;5.85;;
30173;SDS011;16985;50.814;8.530;2023-01-28T03:09:38;8.88;;;5.55;;
30173;SDS011;16985;50.814;8.530;2023-01-28T03:12:08;5.97;;;5.20;;
30173;SDS011;16985;50.814;8.530;2023-01-28T03:15:12;11.18;;;6.25;;
30173;SDS011;16985;50.814;8.530;2023-01-28T03:18:22;7.55;;;5.53;;
30173;SDS011;16985;50.814;8.530;2023-01-28T03:21:31;9.32;;;5.65;;
30173;SDS011;16985;50.814;8.530;2023-01-28T03:24:20;6.47;;;5.35;;
30173;SDS011;16985;50.814;8.530;2023-01-28T03:30:14;10.63;;;5.15;;
30173;SDS011;16985;50.814;8.530;2023-01-28T03:33:10;12.30;;;5.65;;
30173;SDS011;16985;50.814;8.530;2023-01-28T03:35:55;10.75;;;5.50;;
30173;SDS011;16985;50.814;8.530;2023-01-28T03:38:40;8.50;;;5.90;;
30173;SDS011;16985;50.814;8.530;2023-01-28T03:41:10;8.30;;;6.13;;
30173;SDS011;16985;50.814;8.530;2023-01-28T03:43:37;9.70;;;5.90;;
30173;SDS011;16985;50.814;8.530;2023-01-28T03:46:02;8.52;;;6.13;;
30173;SDS011;16985;50.814;8.530;2023-01-28T03:48:30;9.45;;;6.13;;
30173;SDS011;16985;50.814;8.530;2023-01-28T03:50:59;7.97;;;6.22;;
30173;SDS011;16985;50.814;8.530;2023-01-28T03:53:26;13.45;;;7.00;;
30173;SDS011;16985;50.814;8.530;2023-01-28T03:55:54;8.32;;;6.07;;
30173;SDS011;16985;50.814;8.530;2023-01-28T03:58:23;8.60;;;6.38;;
30173;SDS011;16985;50.814;8.530;2023-01-28T04:01:14;11.88;;;6.47;;
30173;SDS011;16985;50.814;8.530;2023-01-28T04:03:40;8.55;;;5.65;;
30173;SDS011;16985;50.814;8.530;2023-01-28T04:06:12;10.80;;;6.55;;
30173;SDS011;16985;50.814;8.530;2023-01-28T04:08:49;9.63;;;6.47;;
30173;SDS011;16985;50.814;8.530;2023-01-28T04:11:44;7.15;;;5.75;;
30173;SDS011;16985;50.814;8.530;2023-01-28T04:14:15;9.88;;;6.43;;
30173;SDS011;16985;50.814;8.530;2023-01-28T04:16:55;10.63;;;7.03;;
30173;SDS011;16985;50.814;8.530;2023-01-28T04:19:23;9.18;;;6.35;;
30173;SDS011;16985;50.814;8.530;2023-01-28T04:21:51;8.75;;;5.80;;
30173;SDS011;16985;50.814;8.530;2023-01-28T04:24:21;7.07;;;5.93;;
30173;SDS011;16985;50.814;8.530;2023-01-28T04:26:47;10.43;;;6.35;;
30173;SDS011;16985;50.814;8.530;2023-01-28T04:29:14;9.13;;;5.65;;
30173;SDS011;16985;50.814;8.530;2023-01-28T04:31:40;12.77;;;5.88;;
30173;SDS011;16985;50.814;8.530;2023-01-28T04:34:33;8.05;;;6.90;;
30173;SDS011;16985;50.814;8.530;2023-01-28T04:37:11;10.65;;;6.15;;
30173;SDS011;16985;50.814;8.530;2023-01-28T04:39:43;10.30;;;5.82;;
30173;SDS011;16985;50.814;8.530;2023-01-28T04:42:15;9.02;;;5.72;;
30173;SDS011;16985;50.814;8.530;2023-01-28T04:45:05;6.20;;;5.13;;
30173;SDS011;16985;50.814;8.530;2023-01-28T04:47:49;6.63;;;4.93;;
30173;SDS011;16985;50.814;8.530;2023-01-28T04:50:33;7.00;;;5.10;;
30173;SDS011;16985;50.814;8.530;2023-01-28T04:53:26;9.60;;;5.50;;
30173;SDS011;16985;50.814;8.530;2023-01-28T04:55:56;6.43;;;5.45;;
30173;SDS011;16985;50.814;8.530;2023-01-28T04:58:22;6.40;;;4.88;;
30173;SDS011;16985;50.814;8.530;2023-01-28T05:00:54;6.28;;;4.72;;
30173;SDS011;16985;50.814;8.530;2023-01-28T05:03:22;8.27;;;4.13;;
30173;SDS011;16985;50.814;8.530;2023-01-28T05:05:48;5.63;;;4.38;;
30173;SDS011;16985;50.814;8.530;2023-01-28T05:08:20;4.82;;;4.18;;
30173;SDS011;16985;50.814;8.530;2023-01-28T05:10:46;5.70;;;5.07;;
30173;SDS011;16985;50.814;8.530;2023-01-28T05:13:12;5.22;;;3.88;;
30173;SDS011;16985;50.814;8.530;2023-01-28T05:15:38;8.88;;;4.47;;
30173;SDS011;16985;50.814;8.530;2023-01-28T05:18:04;5.72;;;3.97;;
30173;SDS011;16985;50.814;8.530;2023-01-28T05:20:36;4.78;;;3.75;;
30173;SDS011;16985;50.814;8.530;2023-01-28T05:23:02;6.75;;;3.72;;
30173;SDS011;16985;50.814;8.530;2023-01-28T05:25:40;5.03;;;4.15;;
30173;SDS011;16985;50.814;8.530;2023-01-28T05:28:06;4.63;;;3.55;;
30173;SDS011;16985;50.814;8.530;2023-01-28T05:30:32;8.00;;;3.60;;
30173;SDS011;16985;50.814;8.530;2023-01-28T05:32:58;5.07;;;3.78;;
30173;SDS011;16985;50.814;8.530;2023-01-28T05:35:24;3.67;;;3.30;;
30173;SDS011;16985;50.814;8.530;2023-01-28T05:37:50;5.15;;;3.40;;
30173;SDS011;16985;50.814;8.530;2023-01-28T05:40:17;4.10;;;2.70;;
30173;SDS011;16985;50.814;8.530;2023-01-28T05:42:42;3.28;;;2.97;;
30173;SDS011;16985;50.814;8.530;2023-01-28T05:45:35;5.95;;;3.10;;
30173;SDS011;16985;50.814;8.530;2023-01-28T05:48:14;3.38;;;2.72;;
30173;SDS011;16985;50.814;8.530;2023-01-28T05:51:08;4.00;;;2.40;;
30173;SDS011;16985;50.814;8.530;2023-01-28T05:53:36;2.90;;;2.33;;
30173;SDS011;16985;50.814;8.530;2023-01-28T05:56:02;3.80;;;2.13;;
30173;SDS011;16985;50.814;8.530;2023-01-28T05:58:30;3.53;;;1.98;;
30173;SDS011;16985;50.814;8.530;2023-01-28T06:00:59;4.32;;;2.30;;
30173;SDS011;16985;50.814;8.530;2023-01-28T06:03:33;1.90;;;1.70;;
30173;SDS011;16985;50.814;8.530;2023-01-28T06:06:00;2.10;;;1.90;;
30173;SDS011;16985;50.814;8.530;2023-01-28T06:08:25;2.78;;;1.77;;
30173;SDS011;16985;50.814;8.530;2023-01-28T06:10:51;1.70;;;1.60;;
30173;SDS011;16985;50.814;8.530;2023-01-28T06:13:19;3.88;;;1.83;;
30173;SDS011;16985;50.814;8.530;2023-01-28T06:16:08;2.65;;;1.77;;
30173;SDS011;16985;50.814;8.530;2023-01-28T06:18:53;2.58;;;1.83;;
30173;SDS011;16985;50.814;8.530;2023-01-28T06:21:18;1.70;;;1.60;;
30173;SDS011;16985;50.814;8.530;2023-01-28T06:23:44;2.05;;;1.85;;
30173;SDS011;16985;50.814;8.530;2023-01-28T06:26:11;1.77;;;1.65;;
30173;SDS011;16985;50.814;8.530;2023-01-28T06:28:42;1.67;;;1.58;;
30173;SDS011;16985;50.814;8.530;2023-01-28T06:31:08;2.47;;;1.50;;
30173;SDS011;16985;50.814;8.530;2023-01-28T06:33:34;1.65;;;1.55;;
30173;SDS011;16985;50.814;8.530;2023-01-28T06:36:03;1.75;;;1.50;;
30173;SDS011;16985;50.814;8.530;2023-01-28T06:38:33;2.25;;;1.80;;
30173;SDS011;16985;50.814;8.530;2023-01-28T06:40:59;3.00;;;1.73;;
30173;SDS011;16985;50.814;8.530;2023-01-28T06:43:25;1.95;;;1.77;;
30173;SDS011;16985;50.814;8.530;2023-01-28T06:45:57;1.70;;;1.60;;
30173;SDS011;16985;50.814;8.530;2023-01-28T06:48:23;2.38;;;1.92;;
30173;SDS011;16985;50.814;8.530;2023-01-28T06:50:50;1.77;;;1.67;;
30173;SDS011;16985;50.814;8.530;2023-01-28T06:53:16;2.97;;;1.80;;
30173;SDS011;16985;50.814;8.530;2023-01-28T06:55:43;2.72;;;1.70;;
30173;SDS011;16985;50.814;8.530;2023-01-28T06:58:09;5.82;;;1.75;;
30173;SDS011;16985;50.814;8.530;2023-01-28T07:00:36;2.22;;;1.42;;
30173;SDS011;16985;50.814;8.530;2023-01-28T07:03:03;2.53;;;1.60;;
30173;SDS011;16985;50.814;8.530;2023-01-28T07:05:29;2.03;;;1.83;;
30173;SDS011;16985;50.814;8.530;2023-01-28T07:07:55;2.22;;;1.70;;
30173;SDS011;16985;50.814;8.530;2023-01-28T07:10:21;6.05;;;2.08;;
30173;SDS011;16985;50.814;8.530;2023-01-28T07:12:47;3.67;;;1.77;;
30173;SDS011;16985;50.814;8.530;2023-01-28T07:15:13;2.92;;;2.03;;
30173;SDS011;16985;50.814;8.530;2023-01-28T07:17:42;2.22;;;2.00;;
30173;SDS011;16985;50.814;8.530;2023-01-28T07:20:10;4.90;;;1.75;;
30173;SDS011;16985;50.814;8.530;2023-01-28T07:22:39;3.88;;;2.20;;
30173;SDS011;16985;50.814;8.530;2023-01-28T07:25:06;4.95;;;2.03;;
30173;SDS011;16985;50.814;8.530;2023-01-28T07:27:33;2.75;;;2.03;;
30173;SDS011;16985;50.814;8.530;2023-01-28T07:29:59;6.22;;;1.85;;
30173;SDS011;16985;50.814;8.530;2023-01-28T07:32:25;3.85;;;2.20;;
30173;SDS011;16985;50.814;8.530;2023-01-28T07:34:52;1.92;;;1.73;;
30173;SDS011;16985;50.814;8.530;2023-01-28T07:37:18;3.10;;;2.13;;
30173;SDS011;16985;50.814;8.530;2023-01-28T07:39:44;3.67;;;2.00;;
30173;SDS011;16985;50.814;8.530;2023-01-28T07:42:10;2.30;;;2.10;;
30173;SDS011;16985;50.814;8.530;2023-01-28T07:44:44;2.05;;;1.85;;
30173;SDS011;16985;50.814;8.530;2023-01-28T07:47:09;6.90;;;2.28;;
30173;SDS011;16985;50.814;8.530;2023-01-28T07:49:35;2.35;;;2.15;;
30173;SDS011;16985;50.814;8.530;2023-01-28T07:52:04;3.05;;;1.85;;
30173;SDS011;16985;50.814;8.530;2023-01-28T07:54:30;3.78;;;2.20;;
30173;SDS011;16985;50.814;8.530;2023-01-28T07:56:57;2.45;;;2.05;;
30173;SDS011;16985;50.814;8.530;2023-01-28T07:59:22;3.83;;;2.00;;
30173;SDS011;16985;50.814;8.530;2023-01-28T08:01:49;2.17;;;1.98;;
30173;SDS011;16985;50.814;8.530;2023-01-28T08:04:14;4.53;;;2.50;;
30173;SDS011;16985;50.814;8.530;2023-01-28T08:06:40;2.50;;;2.30;;
30173;SDS011;16985;50.814;8.530;2023-01-28T08:09:07;3.22;;;2.80;;
30173;SDS011;16985;50.814;8.530;2023-01-28T08:11:33;3.28;;;2.22;;
30173;SDS011;16985;50.814;8.530;2023-01-28T08:14:02;3.42;;;2.60;;
30173;SDS011;16985;50.814;8.530;2023-01-28T08:16:27;2.97;;;2.38;;
30173;SDS011;16985;50.814;8.530;2023-01-28T08:18:54;6.85;;;2.33;;
30173;SDS011;16985;50.814;8.530;2023-01-28T08:21:20;6.32;;;2.38;;
30173;SDS011;16985;50.814;8.530;2023-01-28T08:27:52;4.07;;;2.75;;
30173;SDS011;16985;50.814;8.530;2023-01-28T08:30:18;3.63;;;2.28;;
30173;SDS011;16985;50.814;8.530;2023-01-28T08:32:44;4.53;;;2.65;;
30173;SDS011;16985;50.814;8.530;2023-01-28T08:35:10;3.90;;;2.58;;
30173;SDS011;16985;50.814;8.530;2023-01-28T08:37:36;6.03;;;2.65;;
30173;SDS011;16985;50.814;8.530;2023-01-28T08:40:02;6.40;;;2.65;;
30173;SDS011;16985;50.814;8.530;2023-01-28T08:42:29;5.32;;;2.20;;
30173;SDS011;16985;50.814;8.530;2023-01-28T08:44:54;4.80;;;2.50;;
30173;SDS011;16985;50.814;8.530;2023-01-28T08:47:20;2.67;;;2.47;;
30173;SDS011;16985;50.814;8.530;2023-01-28T08:49:46;2.80;;;2.60;;
30173;SDS011;16985;50.814;8.530;2023-01-28T08:52:12;5.80;;;2.72;;
30173;SDS011;16985;50.814;8.530;2023-01-28T08:54:38;2.95;;;2.72;;
30173;SDS011;16985;50.814;8.530;2023-01-28T08:57:03;3.38;;;2.85;;
30173;SDS011;16985;50.814;8.530;2023-01-28T08:59:29;3.80;;;2.72;;
30173;SDS011;16985;50.814;8.530;2023-01-28T09:01:55;2.67;;;2.47;;
30173;SDS011;16985;50.814;8.530;2023-01-28T09:04:21;2.72;;;2.53;;
30173;SDS011;16985;50.814;8.530;2023-01-28T09:06:47;8.73;;;2.90;;
30173;SDS011;16985;50.814;8.530;2023-01-28T09:09:14;5.00;;;2.65;;
30173;SDS011;16985;50.814;8.530;2023-01-28T09:11:39;2.50;;;2.30;;
30173;SDS011;16985;50.814;8.530;2023-01-28T09:14:06;4.07;;;2.47;;
30173;SDS011;16985;50.814;8.530;2023-01-28T09:16:31;6.53;;;4.20;;
30173;SDS011;16985;50.814;8.530;2023-01-28T09:18:57;4.65;;;2.67;;
30173;SDS011;16985;50.814;8.530;2023-01-28T09:21:23;3.33;;;2.67;;
30173;SDS011;16985;50.814;8.530;2023-01-28T09:23:49;3.28;;;2.38;;
30173;SDS011;16985;50.814;8.530;2023-01-28T09:26:15;3.80;;;2.78;;
30173;SDS011;16985;50.814;8.530;2023-01-28T09:28:42;2.40;;;2.20;;
30173;SDS011;16985;50.814;8.530;2023-01-28T09:31:09;3.88;;;2.42;;
30173;SDS011;16985;50.814;8.530;2023-01-28T09:33:36;6.05;;;2.85;;
30173;SDS011;16985;50.814;8.530;2023-01-28T09:36:04;5.68;;;2.90;;
30173;SDS011;16985;50.814;8.530;2023-01-28T09:38:32;5.10;;;3.15;;
30173;SDS011;16985;50.814;8.530;2023-01-28T09:41:01;3.92;;;2.40;;
30173;SDS011;16985;50.814;8.530;2023-01-28T09:46:45;5.10;;;2.47;;
30173;SDS011;16985;50.814;8.530;2023-01-28T09:49:15;3.20;;;2.60;;
30173;SDS011;16985;50.814;8.530;2023-01-28T09:51:48;4.05;;;2.47;;
30173;SDS011;16985;50.814;8.530;2023-01-28T09:54:23;3.20;;;2.60;;
30173;SDS011;16985;50.814;8.530;2023-01-28T09:57:02;3.92;;;2.40;;
30173;SDS011;16985;50.814;8.530;2023-01-28T09:59:32;2.25;;;1.98;;
30173;SDS011;16985;50.814;8.530;2023-01-28T10:05:42;2.58;;;1.75;;
30173;SDS011;16985;50.814;8.530;2023-01-28T10:11:29;6.70;;;2.55;;
30173;SDS011;16985;50.814;8.530;2023-01-28T10:14:27;4.20;;;2.22;;
30173;SDS011;16985;50.814;8.530;2023-01-28T10:22:38;5.95;;;2.33;;
30173;SDS011;16985;50.814;8.530;2023-01-28T10:27:47;4.97;;;2.38;;
30173;SDS011;16985;50.814;8.530;2023-01-28T10:35:39;2.53;;;2.33;;
30173;SDS011;16985;50.814;8.530;2023-01-28T10:38:07;7.38;;;2.20;;
30173;SDS011;16985;50.814;8.530;2023-01-28T10:40:39;4.43;;;2.10;;
30173;SDS011;16985;50.814;8.530;2023-01-28T10:43:06;2.63;;;2.25;;
30173;SDS011;16985;50.814;8.530;2023-01-28T10:45:36;4.78;;;2.22;;
30173;SDS011;16985;50.814;8.530;2023-01-28T10:48:23;3.83;;;2.10;;
30173;SDS011;16985;50.814;8.530;2023-01-28T10:50:58;3.28;;;2.00;;
30173;SDS011;16985;50.814;8.530;2023-01-28T10:53:36;6.20;;;2.42;;
30173;SDS011;16985;50.814;8.530;2023-01-28T10:56:09;2.85;;;2.25;;
30173;SDS011;16985;50.814;8.530;2023-01-28T11:01:25;8.95;;;2.47;;
30173;SDS011;16985;50.814;8.530;2023-01-28T11:04:12;2.78;;;2.38;;
30173;SDS011;16985;50.814;8.530;2023-01-28T11:07:01;4.93;;;2.92;;
30173;SDS011;16985;50.814;8.530;2023-01-28T11:09:31;4.50;;;2.60;;
30173;SDS011;16985;50.814;8.530;2023-01-28T11:12:09;2.70;;;1.95;;
30173;SDS011;16985;50.814;8.530;2023-01-28T11:15:15;3.22;;;2.35;;
30173;SDS011;16985;50.814;8.530;2023-01-28T11:17:45;3.47;;;2.40;;
30173;SDS011;16985;50.814;8.530;2023-01-28T11:20:20;2.42;;;2.13;;
30173;SDS011;16985;50.814;8.530;2023-01-28T11:22:49;2.97;;;2.20;;
30173;SDS011;16985;50.814;8.530;2023-01-28T11:25:27;8.77;;;2.45;;
30173;SDS011;16985;50.814;8.530;2023-01-28T11:28:06;5.45;;;2.20;;
30173;SDS011;16985;50.814;8.530;2023-01-28T11:30:41;4.88;;;2.65;;
30173;SDS011;16985;50.814;8.530;2023-01-28T11:35:36;6.15;;;2.50;;
30173;SDS011;16985;50.814;8.530;2023-01-28T11:38:03;4.10;;;2.53;;
30173;SDS011;16985;50.814;8.530;2023-01-28T11:40:48;2.72;;;2.50;;
30173;SDS011;16985;50.814;8.530;2023-01-28T11:43:17;2.78;;;2.47;;
30173;SDS011;16985;50.814;8.530;2023-01-28T11:51:55;3.67;;;2.83;;
30173;SDS011;16985;50.814;8.530;2023-01-28T12:00:39;6.68;;;3.10;;
30173;SDS011;16985;50.814;8.530;2023-01-28T12:08:59;6.97;;;3.60;;
30173;SDS011;16985;50.814;8.530;2023-01-28T12:20:34;5.40;;;3.10;;
30173;SDS011;16985;50.814;8.530;2023-01-28T12:23:35;4.78;;;3.30;;
30173;SDS011;16985;50.814;8.530;2023-01-28T12:26:39;6.82;;;3.45;;
30173;SDS011;16985;50.814;8.530;2023-01-28T12:35:01;3.80;;;3.40;;
30173;SDS011;16985;50.814;8.530;2023-01-28T12:37:53;4.15;;;3.33;;
30173;SDS011;16985;50.814;8.530;2023-01-28T12:54:39;3.83;;;3.50;;
30173;SDS011;16985;50.814;8.530;2023-01-28T12:57:27;7.38;;;3.80;;
30173;SDS011;16985;50.814;8.530;2023-01-28T13:02:56;3.83;;;3.53;;
30173;SDS011;16985;50.814;8.530;2023-01-28T13:06:01;6.72;;;4.03;;
30173;SDS011;16985;50.814;8.530;2023-01-28T13:08:34;3.80;;;3.50;;
30173;SDS011;16985;50.814;8.530;2023-01-28T13:11:01;7.10;;;4.10;;
30173;SDS011;16985;50.814;8.530;2023-01-28T13:15:56;4.88;;;4.00;;
30173;SDS011;16985;50.814;8.530;2023-01-28T13:18:30;7.22;;;5.28;;
30173;SDS011;16985;50.814;8.530;2023-01-28T13:24:01;5.03;;;4.10;;
30173;SDS011;16985;50.814;8.530;2023-01-28T13:29:38;11.00;;;6.03;;
30173;SDS011;16985;50.814;8.530;2023-01-28T13:32:23;4.22;;;3.63;;
30173;SDS011;16985;50.814;8.530;2023-01-28T13:35:02;5.30;;;3.65;;
30173;SDS011;16985;50.814;8.530;2023-01-28T13:37:32;5.10;;;3.75;;
30173;SDS011;16985;50.814;8.530;2023-01-28T13:50:43;4.15;;;3.80;;
30173;SDS011;16985;50.814;8.530;2023-01-28T13:53:21;6.55;;;4.50;;
30173;SDS011;16985;50.814;8.530;2023-01-28T13:55:48;5.95;;;4.10;;
30173;SDS011;16985;50.814;8.530;2023-01-28T14:13:08;4.85;;;4.38;;
30173;SDS011;16985;50.814;8.530;2023-01-28T14:18:41;8.18;;;4.53;;
30173;SDS011;16985;50.814;8.530;2023-01-28T14:21:10;8.20;;;4.32;;
30173;SDS011;16985;50.814;8.530;2023-01-28T14:23:43;6.05;;;4.95;;
30173;SDS011;16985;50.814;8.530;2023-01-28T14:26:35;7.93;;;4.70;;
30173;SDS011;16985;50.814;8.530;2023-01-28T14:29:33;9.85;;;4.60;;
30173;SDS011;16985;50.814;8.530;2023-01-28T14:32:32;5.72;;;5.13;;
30173;SDS011;16985;50.814;8.530;2023-01-28T14:35:00;13.93;;;4.68;;
30173;SDS011;16985;50.814;8.530;2023-01-28T14:37:33;7.68;;;4.90;;
30173;SDS011;16985;50.814;8.530;2023-01-28T14:40:00;6.53;;;4.35;;
30173;SDS011;16985;50.814;8.530;2023-01-28T14:42:41;5.95;;;5.10;;
30173;SDS011;16985;50.814;8.530;2023-01-28T14:59:52;9.48;;;5.57;;
30173;SDS011;16985;50.814;8.530;2023-01-28T15:02:26;6.63;;;4.63;;
30173;SDS011;16985;50.814;8.530;2023-01-28T15:05:06;12.60;;;4.60;;
30173;SDS011;16985;50.814;8.530;2023-01-28T15:07:34;6.05;;;4.50;;
30173;SDS011;16985;50.814;8.530;2023-01-28T15:12:35;4.97;;;4.57;;
30173;SDS011;16985;50.814;8.530;2023-01-28T15:15:10;6.32;;;4.75;;
30173;SDS011;16985;50.814;8.530;2023-01-28T15:17:44;5.60;;;3.95;;
30173;SDS011;16985;50.814;8.530;2023-01-28T15:20:15;5.47;;;4.72;;
30173;SDS011;16985;50.814;8.530;2023-01-28T15:22:45;8.10;;;4.57;;
30173;SDS011;16985;50.814;8.530;2023-01-28T15:25:15;4.65;;;4.15;;
30173;SDS011;16985;50.814;8.530;2023-01-28T15:27:44;5.13;;;4.63;;
30173;SDS011;16985;50.814;8.530;2023-01-28T15:30:21;5.28;;;4.78;;
30173;SDS011;16985;50.814;8.530;2023-01-28T15:33:04;4.63;;;4.15;;
30173;SDS011;16985;50.814;8.530;2023-01-28T15:35:37;6.90;;;4.97;;
30173;SDS011;16985;50.814;8.530;2023-01-28T15:38:11;7.10;;;4.60;;
30173;SDS011;16985;50.814;8.530;2023-01-28T15:40:41;6.80;;;4.70;;
30173;SDS011;16985;50.814;8.530;2023-01-28T15:43:16;5.85;;;4.72;;
30173;SDS011;16985;50.814;8.530;2023-01-28T15:45:46;7.13;;;4.70;;
30173;SDS011;16985;50.814;8.530;2023-01-28T15:48:13;5.40;;;4.90;;
30173;SDS011;16985;50.814;8.530;2023-01-28T15:50:40;6.47;;;4.70;;
30173;SDS011;16985;50.814;8.530;2023-01-28T15:53:11;7.28;;;4.93;;
30173;SDS011;16985;50.814;8.530;2023-01-28T15:55:39;8.20;;;5.40;;
30173;SDS011;16985;50.814;8.530;2023-01-28T16:01:00;13.32;;;6.78;;
30173;SDS011;16985;50.814;8.530;2023-01-28T16:03:35;27.23;;;9.63;;
30173;SDS011;16985;50.814;8.530;2023-01-28T16:11:41;41.88;;;18.05;;
30173;SDS011;16985;50.814;8.530;2023-01-28T16:14:43;37.97;;;17.20;;
30173;SDS011;16985;50.814;8.530;2023-01-28T16:17:24;32.20;;;14.52;;
30173;SDS011;16985;50.814;8.530;2023-01-28T16:19:57;26.92;;;13.18;;
30173;SDS011;16985;50.814;8.530;2023-01-28T16:22:35;25.02;;;12.55;;
30173;SDS011;16985;50.814;8.530;2023-01-28T16:25:26;22.58;;;11.43;;
30173;SDS011;16985;50.814;8.530;2023-01-28T16:27:56;17.02;;;8.70;;
30173;SDS011;16985;50.814;8.530;2023-01-28T16:30:23;16.25;;;9.65;;
30173;SDS011;16985;50.814;8.530;2023-01-28T16:32:50;14.65;;;8.45;;
30173;SDS011;16985;50.814;8.530;2023-01-28T16:35:17;13.23;;;9.32;;
30173;SDS011;16985;50.814;8.530;2023-01-28T16:37:49;12.48;;;8.48;;
30173;SDS011;16985;50.814;8.530;2023-01-28T16:40:16;15.93;;;9.48;;
30173;SDS011;16985;50.814;8.530;2023-01-28T16:42:46;19.27;;;9.25;;
30173;SDS011;16985;50.814;8.530;2023-01-28T16:47:43;11.57;;;8.90;;
30173;SDS011;16985;50.814;8.530;2023-01-28T16:50:10;13.55;;;8.70;;
30173;SDS011;16985;50.814;8.530;2023-01-28T16:52:38;20.73;;;10.23;;
30173;SDS011;16985;50.814;8.530;2023-01-28T16:55:06;21.60;;;10.73;;
30173;SDS011;16985;50.814;8.530;2023-01-28T16:57:38;22.20;;;10.52;;
30173;SDS011;16985;50.814;8.530;2023-01-28T17:00:04;28.42;;;12.48;;
30173;SDS011;16985;50.814;8.530;2023-01-28T17:02:31;36.70;;;13.63;;
30173;SDS011;16985;50.814;8.530;2023-01-28T17:04:57;31.17;;;12.82;;
30173;SDS011;16985;50.814;8.530;2023-01-28T17:07:23;27.10;;;12.77;;
30173;SDS011;16985;50.814;8.530;2023-01-28T17:09:49;26.60;;;12.65;;
30173;SDS011;16985;50.814;8.530;2023-01-28T17:12:14;25.75;;;11.60;;
30173;SDS011;16985;50.814;8.530;2023-01-28T17:14:40;27.13;;;13.68;;
30173;SDS011;16985;50.814;8.530;2023-01-28T17:17:06;35.40;;;14.73;;
30173;SDS011;16985;50.814;8.530;2023-01-28T17:19:32;33.03;;;13.45;;
30173;SDS011;16985;50.814;8.530;2023-01-28T17:21:58;27.83;;;13.82;;
30173;SDS011;16985;50.814;8.530;2023-01-28T17:24:23;35.40;;;14.25;;
30173;SDS011;16985;50.814;8.530;2023-01-28T17:26:52;28.63;;;14.25;;
30173;SDS011;16985;50.814;8.530;2023-01-28T17:29:18;37.20;;;16.38;;
30173;SDS011;16985;50.814;8.530;2023-01-28T17:31:44;50.72;;;20.85;;
30173;SDS011;16985;50.814;8.530;2023-01-28T17:34:10;38.90;;;19.02;;
30173;SDS011;16985;50.814;8.530;2023-01-28T17:36:36;32.55;;;16.08;;
30173;SDS011;16985;50.814;8.530;2023-01-28T17:39:02;28.75;;;15.02;;
30173;SDS011;16985;50.814;8.530;2023-01-28T17:41:30;31.77;;;14.30;;
30173;SDS011;16985;50.814;8.530;2023-01-28T17:43:55;27.33;;;14.75;;
30173;SDS011;16985;50.814;8.530;2023-01-28T17:46:22;25.00;;;14.85;;
30173;SDS011;16985;50.814;8.530;2023-01-28T17:48:49;25.35;;;13.02;;
30173;SDS011;16985;50.814;8.530;2023-01-28T17:51:16;27.35;;;14.90;;
30173;SDS011;16985;50.814;8.530;2023-01-28T17:53:46;23.20;;;12.68;;
30173;SDS011;16985;50.814;8.530;2023-01-28T17:56:20;24.55;;;13.52;;
30173;SDS011;16985;50.814;8.530;2023-01-28T17:58:50;22.60;;;12.63;;
30173;SDS011;16985;50.814;8.530;2023-01-28T18:01:18;22.40;;;13.80;;
30173;SDS011;16985;50.814;8.530;2023-01-28T18:03:45;18.83;;;12.55;;